sensor_id;sensor_type;location;lat;lon;timestamp;temperature;humidity
2409;DHT22;8463;48.094;7.970;2024-03-06T00:04:11;6.90;1.00
2409;DHT22;8463;48.094;7.970;2024-03-06T00:06:36;7.00;1.00
2409;DHT22;8463;48.094;7.970;2024-03-06T00:09:02;7.00;1.00
2409;DHT22;8463;48.094;7.970;2024-03-06T00:11:28;7.00;1.00
2409;DHT22;8463;48.094;7.970;2024-03-06T00:13:54;7.00;1.00
2409;DHT22;8463;48.094;7.970;2024-03-06T00:16:20;7.00;1.00
2409;DHT22;8463;48.094;7.970;2024-03-06T00:18:46;7.00;1.00
2409;DHT22;8463;48.094;7.970;2024-03-06T00:21:12;6.90;1.00
2409;DHT22;8463;48.094;7.970;2024-03-06T00:23:38;7.00;1.00
2409;DHT22;8463;48.094;7.970;2024-03-06T00:26:04;7.00;1.00
2409;DHT22;8463;48.094;7.970;2024-03-06T00:28:30;7.00;1.00
2409;DHT22;8463;48.094;7.970;2024-03-06T00:30:56;6.90;1.00
2409;DHT22;8463;48.094;7.970;2024-03-06T00:33:21;7.00;1.00
2409;DHT22;8463;48.094;7.970;2024-03-06T00:35:49;7.00;1.00
2409;DHT22;8463;48.094;7.970;2024-03-06T00:38:15;7.00;1.00
2409;DHT22;8463;48.094;7.970;2024-03-06T00:40:41;7.00;1.00
2409;DHT22;8463;48.094;7.970;2024-03-06T00:43:07;7.00;1.00
2409;DHT22;8463;48.094;7.970;2024-03-06T00:45:32;7.00;1.00
2409;DHT22;8463;48.094;7.970;2024-03-06T00:47:58;6.90;1.00
2409;DHT22;8463;48.094;7.970;2024-03-06T00:50:24;7.00;1.00
2409;DHT22;8463;48.094;7.970;2024-03-06T00:52:52;7.00;1.00
2409;DHT22;8463;48.094;7.970;2024-03-06T00:55:18;7.00;1.00
2409;DHT22;8463;48.094;7.970;2024-03-06T00:57:43;7.00;1.00
2409;DHT22;8463;48.094;7.970;2024-03-06T01:00:09;7.00;1.00
2409;DHT22;8463;48.094;7.970;2024-03-06T01:02:38;7.10;1.00
2409;DHT22;8463;48.094;7.970;2024-03-06T01:05:04;7.00;1.00
2409;DHT22;8463;48.094;7.970;2024-03-06T01:07:30;7.00;1.00
2409;DHT22;8463;48.094;7.970;2024-03-06T01:09:59;7.00;1.00
2409;DHT22;8463;48.094;7.970;2024-03-06T01:12:25;7.00;1.00
2409;DHT22;8463;48.094;7.970;2024-03-06T01:14:51;7.00;1.00
2409;DHT22;8463;48.094;7.970;2024-03-06T01:17:16;7.00;1.00
2409;DHT22;8463;48.094;7.970;2024-03-06T01:19:42;7.00;1.00
2409;DHT22;8463;48.094;7.970;2024-03-06T01:22:11;7.00;1.00
2409;DHT22;8463;48.094;7.970;2024-03-06T01:24:40;7.10;1.00
2409;DHT22;8463;48.094;7.970;2024-03-06T01:27:06;7.00;1.00
2409;DHT22;8463;48.094;7.970;2024-03-06T01:29:32;7.00;1.00
2409;DHT22;8463;48.094;7.970;2024-03-06T01:31:58;7.00;1.00
2409;DHT22;8463;48.094;7.970;2024-03-06T01:34:24;7.00;1.00
2409;DHT22;8463;48.094;7.970;2024-03-06T01:36:52;7.00;1.00
2409;DHT22;8463;48.094;7.970;2024-03-06T01:39:19;7.00;1.00
2409;DHT22;8463;48.094;7.970;2024-03-06T01:41:45;7.00;1.00
2409;DHT22;8463;48.094;7.970;2024-03-06T01:44:11;6.90;1.00
2409;DHT22;8463;48.094;7.970;2024-03-06T01:46:38;6.90;1.00
2409;DHT22;8463;48.094;7.970;2024-03-06T01:49:04;6.90;1.00
2409;DHT22;8463;48.094;7.970;2024-03-06T01:51:30;6.90;1.00
2409;DHT22;8463;48.094;7.970;2024-03-06T01:53:57;6.90;1.00
2409;DHT22;8463;48.094;7.970;2024-03-06T01:56:23;7.00;1.00
2409;DHT22;8463;48.094;7.970;2024-03-06T01:58:49;7.00;1.00
2409;DHT22;8463;48.094;7.970;2024-03-06T02:01:16;7.00;1.00
2409;DHT22;8463;48.094;7.970;2024-03-06T02:03:43;7.00;1.00
2409;DHT22;8463;48.094;7.970;2024-03-06T02:06:11;7.00;1.00
2409;DHT22;8463;48.094;7.970;2024-03-06T02:08:37;7.10;1.00
2409;DHT22;8463;48.094;7.970;2024-03-06T02:11:03;7.00;1.00
2409;DHT22;8463;48.094;7.970;2024-03-06T02:13:28;7.00;1.00
2409;DHT22;8463;48.094;7.970;2024-03-06T02:15:56;7.00;1.00
2409;DHT22;8463;48.094;7.970;2024-03-06T02:18:23;6.90;1.00
2409;DHT22;8463;48.094;7.970;2024-03-06T02:20:49;6.90;1.00
2409;DHT22;8463;48.094;7.970;2024-03-06T02:25:44;6.70;1.00
2409;DHT22;8463;48.094;7.970;2024-03-06T02:28:12;6.70;1.00
2409;DHT22;8463;48.094;7.970;2024-03-06T02:30:38;6.60;1.00
2409;DHT22;8463;48.094;7.970;2024-03-06T02:33:04;6.60;1.00
2409;DHT22;8463;48.094;7.970;2024-03-06T02:35:31;6.50;1.00
2409;DHT22;8463;48.094;7.970;2024-03-06T02:38:00;6.50;1.00
2409;DHT22;8463;48.094;7.970;2024-03-06T02:40:26;6.40;1.00
2409;DHT22;8463;48.094;7.970;2024-03-06T02:42:51;6.40;1.00
2409;DHT22;8463;48.094;7.970;2024-03-06T02:45:17;6.40;1.00
2409;DHT22;8463;48.094;7.970;2024-03-06T02:47:44;6.40;1.00
2409;DHT22;8463;48.094;7.970;2024-03-06T02:50:10;6.30;1.00
2409;DHT22;8463;48.094;7.970;2024-03-06T02:52:36;6.30;1.00
2409;DHT22;8463;48.094;7.970;2024-03-06T02:55:02;6.30;1.00
2409;DHT22;8463;48.094;7.970;2024-03-06T02:57:27;6.30;1.00
2409;DHT22;8463;48.094;7.970;2024-03-06T02:59:57;6.40;1.00
2409;DHT22;8463;48.094;7.970;2024-03-06T03:02:22;6.30;1.00
2409;DHT22;8463;48.094;7.970;2024-03-06T03:04:53;6.30;1.00
2409;DHT22;8463;48.094;7.970;2024-03-06T03:07:19;6.30;1.00
2409;DHT22;8463;48.094;7.970;2024-03-06T03:09:45;6.30;1.00
2409;DHT22;8463;48.094;7.970;2024-03-06T03:12:11;6.30;1.00
2409;DHT22;8463;48.094;7.970;2024-03-06T03:14:37;6.50;1.00
2409;DHT22;8463;48.094;7.970;2024-03-06T03:17:05;6.30;1.00
2409;DHT22;8463;48.094;7.970;2024-03-06T03:19:33;6.40;1.00
2409;DHT22;8463;48.094;7.970;2024-03-06T03:21:59;6.30;1.00
2409;DHT22;8463;48.094;7.970;2024-03-06T03:24:25;6.30;1.00
2409;DHT22;8463;48.094;7.970;2024-03-06T03:26:54;6.30;1.00
2409;DHT22;8463;48.094;7.970;2024-03-06T03:29:19;6.20;1.00
2409;DHT22;8463;48.094;7.970;2024-03-06T03:31:46;6.20;1.00
2409;DHT22;8463;48.094;7.970;2024-03-06T03:34:12;6.20;1.00
2409;DHT22;8463;48.094;7.970;2024-03-06T03:36:43;6.20;1.00
2409;DHT22;8463;48.094;7.970;2024-03-06T03:39:12;6.20;1.00
2409;DHT22;8463;48.094;7.970;2024-03-06T03:41:47;6.30;1.00
2409;DHT22;8463;48.094;7.970;2024-03-06T03:44:17;6.20;1.00
2409;DHT22;8463;48.094;7.970;2024-03-06T03:46:44;6.10;1.00
2409;DHT22;8463;48.094;7.970;2024-03-06T03:49:10;6.10;1.00
2409;DHT22;8463;48.094;7.970;2024-03-06T03:51:37;6.10;1.00
2409;DHT22;8463;48.094;7.970;2024-03-06T03:54:04;6.20;1.00
2409;DHT22;8463;48.094;7.970;2024-03-06T03:56:30;6.10;1.00
2409;DHT22;8463;48.094;7.970;2024-03-06T03:58:56;6.10;1.00
2409;DHT22;8463;48.094;7.970;2024-03-06T04:01:26;6.20;1.00
2409;DHT22;8463;48.094;7.970;2024-03-06T04:03:52;6.20;1.00
2409;DHT22;8463;48.094;7.970;2024-03-06T04:06:17;6.30;1.00
2409;DHT22;8463;48.094;7.970;2024-03-06T04:08:44;6.20;1.00
2409;DHT22;8463;48.094;7.970;2024-03-06T04:11:10;6.30;1.00
2409;DHT22;8463;48.094;7.970;2024-03-06T04:13:39;6.40;1.00
2409;DHT22;8463;48.094;7.970;2024-03-06T04:16:05;6.30;1.00
2409;DHT22;8463;48.094;7.970;2024-03-06T04:18:31;6.20;1.00
2409;DHT22;8463;48.094;7.970;2024-03-06T04:21:04;6.30;1.00
2409;DHT22;8463;48.094;7.970;2024-03-06T04:23:30;6.30;1.00
2409;DHT22;8463;48.094;7.970;2024-03-06T04:26:02;6.30;1.00
2409;DHT22;8463;48.094;7.970;2024-03-06T04:28:29;6.40;1.00
2409;DHT22;8463;48.094;7.970;2024-03-06T04:30:54;6.40;1.00
2409;DHT22;8463;48.094;7.970;2024-03-06T04:33:20;6.40;1.00
2409;DHT22;8463;48.094;7.970;2024-03-06T04:35:46;6.30;1.00
2409;DHT22;8463;48.094;7.970;2024-03-06T04:38:11;6.50;1.00
2409;DHT22;8463;48.094;7.970;2024-03-06T04:40:37;6.50;1.00
2409;DHT22;8463;48.094;7.970;2024-03-06T04:43:03;6.50;1.00
2409;DHT22;8463;48.094;7.970;2024-03-06T04:45:28;6.40;1.00
2409;DHT22;8463;48.094;7.970;2024-03-06T04:47:56;6.40;1.00
2409;DHT22;8463;48.094;7.970;2024-03-06T04:50:22;6.50;1.00
2409;DHT22;8463;48.094;7.970;2024-03-06T04:52:47;6.50;1.00
2409;DHT22;8463;48.094;7.970;2024-03-06T04:55:13;6.50;1.00
2409;DHT22;8463;48.094;7.970;2024-03-06T04:57:44;6.50;1.00
2409;DHT22;8463;48.094;7.970;2024-03-06T05:00:11;6.50;1.00
2409;DHT22;8463;48.094;7.970;2024-03-06T05:02:37;6.50;1.00
2409;DHT22;8463;48.094;7.970;2024-03-06T05:05:04;6.50;1.00
2409;DHT22;8463;48.094;7.970;2024-03-06T05:07:33;6.50;1.00
2409;DHT22;8463;48.094;7.970;2024-03-06T05:09:59;6.50;1.00
2409;DHT22;8463;48.094;7.970;2024-03-06T05:12:26;6.50;1.00
2409;DHT22;8463;48.094;7.970;2024-03-06T05:14:53;6.50;1.00
2409;DHT22;8463;48.094;7.970;2024-03-06T05:17:19;6.50;1.00
2409;DHT22;8463;48.094;7.970;2024-03-06T05:19:46;6.50;1.00
2409;DHT22;8463;48.094;7.970;2024-03-06T05:22:13;6.50;1.00
2409;DHT22;8463;48.094;7.970;2024-03-06T05:24:39;6.50;1.00
2409;DHT22;8463;48.094;7.970;2024-03-06T05:27:05;6.50;1.00
2409;DHT22;8463;48.094;7.970;2024-03-06T05:29:31;6.50;1.00
2409;DHT22;8463;48.094;7.970;2024-03-06T05:34:23;6.50;1.00
2409;DHT22;8463;48.094;7.970;2024-03-06T05:36:49;6.50;1.00
2409;DHT22;8463;48.094;7.970;2024-03-06T05:39:14;6.50;1.00
2409;DHT22;8463;48.094;7.970;2024-03-06T05:41:41;6.50;1.00
2409;DHT22;8463;48.094;7.970;2024-03-06T05:44:07;6.50;1.00
2409;DHT22;8463;48.094;7.970;2024-03-06T05:46:33;6.40;1.00
2409;DHT22;8463;48.094;7.970;2024-03-06T05:48:59;6.40;1.00
2409;DHT22;8463;48.094;7.970;2024-03-06T05:51:25;6.40;1.00
2409;DHT22;8463;48.094;7.970;2024-03-06T05:53:50;6.30;1.00
2409;DHT22;8463;48.094;7.970;2024-03-06T05:56:19;6.40;1.00
2409;DHT22;8463;48.094;7.970;2024-03-06T05:58:46;6.30;1.00
2409;DHT22;8463;48.094;7.970;2024-03-06T06:01:17;6.30;1.00
2409;DHT22;8463;48.094;7.970;2024-03-06T06:03:50;6.40;1.00
2409;DHT22;8463;48.094;7.970;2024-03-06T06:06:16;6.40;1.00
2409;DHT22;8463;48.094;7.970;2024-03-06T06:08:42;6.40;1.00
2409;DHT22;8463;48.094;7.970;2024-03-06T06:11:09;6.40;1.00
2409;DHT22;8463;48.094;7.970;2024-03-06T06:13:35;6.40;1.00
2409;DHT22;8463;48.094;7.970;2024-03-06T06:16:01;6.40;1.00
2409;DHT22;8463;48.094;7.970;2024-03-06T06:18:29;6.40;1.00
2409;DHT22;8463;48.094;7.970;2024-03-06T06:20:55;6.30;1.00
2409;DHT22;8463;48.094;7.970;2024-03-06T06:23:21;6.40;1.00
2409;DHT22;8463;48.094;7.970;2024-03-06T06:25:47;6.40;1.00
2409;DHT22;8463;48.094;7.970;2024-03-06T06:28:12;6.40;1.00
2409;DHT22;8463;48.094;7.970;2024-03-06T06:30:38;6.40;1.00
2409;DHT22;8463;48.094;7.970;2024-03-06T06:33:04;6.30;1.00
2409;DHT22;8463;48.094;7.970;2024-03-06T06:35:30;6.30;1.00
2409;DHT22;8463;48.094;7.970;2024-03-06T06:37:56;6.30;1.00
2409;DHT22;8463;48.094;7.970;2024-03-06T06:40:21;6.20;1.00
2409;DHT22;8463;48.094;7.970;2024-03-06T06:42:48;6.30;1.00
2409;DHT22;8463;48.094;7.970;2024-03-06T06:45:17;6.30;1.00
2409;DHT22;8463;48.094;7.970;2024-03-06T06:47:43;6.30;1.00
2409;DHT22;8463;48.094;7.970;2024-03-06T06:50:12;6.30;1.00
2409;DHT22;8463;48.094;7.970;2024-03-06T06:52:38;6.40;1.00
2409;DHT22;8463;48.094;7.970;2024-03-06T06:55:06;6.40;1.00
2409;DHT22;8463;48.094;7.970;2024-03-06T06:57:32;6.40;1.00
2409;DHT22;8463;48.094;7.970;2024-03-06T07:00:02;6.40;1.00
2409;DHT22;8463;48.094;7.970;2024-03-06T07:02:37;6.30;1.00
2409;DHT22;8463;48.094;7.970;2024-03-06T07:05:05;6.30;1.00
2409;DHT22;8463;48.094;7.970;2024-03-06T07:07:31;6.20;1.00
2409;DHT22;8463;48.094;7.970;2024-03-06T07:09:57;6.20;1.00
2409;DHT22;8463;48.094;7.970;2024-03-06T07:12:23;6.30;1.00
2409;DHT22;8463;48.094;7.970;2024-03-06T07:14:48;6.30;1.00
2409;DHT22;8463;48.094;7.970;2024-03-06T07:17:14;6.40;1.00
2409;DHT22;8463;48.094;7.970;2024-03-06T07:19:39;6.30;1.00
2409;DHT22;8463;48.094;7.970;2024-03-06T07:22:05;6.20;1.00
2409;DHT22;8463;48.094;7.970;2024-03-06T07:24:31;6.20;1.00
2409;DHT22;8463;48.094;7.970;2024-03-06T07:26:57;6.30;1.00
2409;DHT22;8463;48.094;7.970;2024-03-06T07:29:22;6.20;1.00
2409;DHT22;8463;48.094;7.970;2024-03-06T07:31:48;6.30;1.00
2409;DHT22;8463;48.094;7.970;2024-03-06T07:34:14;6.30;1.00
2409;DHT22;8463;48.094;7.970;2024-03-06T07:36:40;6.30;1.00
2409;DHT22;8463;48.094;7.970;2024-03-06T07:39:14;6.40;1.00
2409;DHT22;8463;48.094;7.970;2024-03-06T07:41:40;6.40;1.00
2409;DHT22;8463;48.094;7.970;2024-03-06T07:44:07;6.30;1.00
2409;DHT22;8463;48.094;7.970;2024-03-06T07:46:34;6.40;1.00
2409;DHT22;8463;48.094;7.970;2024-03-06T07:49:00;6.40;1.00
2409;DHT22;8463;48.094;7.970;2024-03-06T07:51:26;6.40;1.00
2409;DHT22;8463;48.094;7.970;2024-03-06T07:53:51;6.30;1.00
2409;DHT22;8463;48.094;7.970;2024-03-06T07:56:19;6.30;1.00
2409;DHT22;8463;48.094;7.970;2024-03-06T07:58:44;6.30;1.00
2409;DHT22;8463;48.094;7.970;2024-03-06T08:01:10;6.20;1.00
2409;DHT22;8463;48.094;7.970;2024-03-06T08:03:38;6.30;1.00
2409;DHT22;8463;48.094;7.970;2024-03-06T08:06:05;6.40;1.00
2409;DHT22;8463;48.094;7.970;2024-03-06T08:08:31;6.40;1.00
2409;DHT22;8463;48.094;7.970;2024-03-06T08:10:56;6.40;1.00
2409;DHT22;8463;48.094;7.970;2024-03-06T08:13:22;6.50;1.00
2409;DHT22;8463;48.094;7.970;2024-03-06T08:15:48;6.50;1.00
2409;DHT22;8463;48.094;7.970;2024-03-06T08:18:14;6.60;1.00
2409;DHT22;8463;48.094;7.970;2024-03-06T08:20:40;6.60;1.00
2409;DHT22;8463;48.094;7.970;2024-03-06T08:23:07;6.60;1.00
2409;DHT22;8463;48.094;7.970;2024-03-06T08:25:35;6.60;1.00
2409;DHT22;8463;48.094;7.970;2024-03-06T08:28:00;6.50;1.00
2409;DHT22;8463;48.094;7.970;2024-03-06T08:30:28;6.60;1.00
2409;DHT22;8463;48.094;7.970;2024-03-06T08:32:55;6.50;1.00
2409;DHT22;8463;48.094;7.970;2024-03-06T08:35:22;6.60;1.00
2409;DHT22;8463;48.094;7.970;2024-03-06T08:37:49;6.60;1.00
2409;DHT22;8463;48.094;7.970;2024-03-06T08:40:17;6.60;1.00
2409;DHT22;8463;48.094;7.970;2024-03-06T08:42:52;6.70;1.00
2409;DHT22;8463;48.094;7.970;2024-03-06T08:45:17;6.70;1.00
2409;DHT22;8463;48.094;7.970;2024-03-06T08:47:44;6.70;1.00
2409;DHT22;8463;48.094;7.970;2024-03-06T08:50:11;6.80;1.00
2409;DHT22;8463;48.094;7.970;2024-03-06T08:52:37;6.70;1.00
2409;DHT22;8463;48.094;7.970;2024-03-06T08:55:03;6.70;1.00
2409;DHT22;8463;48.094;7.970;2024-03-06T08:57:30;6.70;1.00
2409;DHT22;8463;48.094;7.970;2024-03-06T08:59:57;6.80;1.00
2409;DHT22;8463;48.094;7.970;2024-03-06T09:02:23;6.90;1.00
2409;DHT22;8463;48.094;7.970;2024-03-06T09:04:49;6.90;1.00
2409;DHT22;8463;48.094;7.970;2024-03-06T09:07:17;6.80;1.00
2409;DHT22;8463;48.094;7.970;2024-03-06T09:09:43;6.90;1.00
2409;DHT22;8463;48.094;7.970;2024-03-06T09:12:10;6.90;1.00
2409;DHT22;8463;48.094;7.970;2024-03-06T09:14:39;7.00;1.00
2409;DHT22;8463;48.094;7.970;2024-03-06T09:17:05;7.00;1.00
2409;DHT22;8463;48.094;7.970;2024-03-06T09:19:32;7.10;1.00
2409;DHT22;8463;48.094;7.970;2024-03-06T09:21:58;7.20;1.00
2409;DHT22;8463;48.094;7.970;2024-03-06T09:24:24;7.10;1.00
2409;DHT22;8463;48.094;7.970;2024-03-06T09:26:53;7.10;1.00
2409;DHT22;8463;48.094;7.970;2024-03-06T09:29:19;7.10;1.00
2409;DHT22;8463;48.094;7.970;2024-03-06T09:31:46;7.20;1.00
2409;DHT22;8463;48.094;7.970;2024-03-06T09:34:13;7.20;1.00
2409;DHT22;8463;48.094;7.970;2024-03-06T09:36:45;7.40;1.00
2409;DHT22;8463;48.094;7.970;2024-03-06T09:39:15;7.50;1.00
2409;DHT22;8463;48.094;7.970;2024-03-06T09:41:46;7.50;1.00
2409;DHT22;8463;48.094;7.970;2024-03-06T09:44:13;7.70;1.00
2409;DHT22;8463;48.094;7.970;2024-03-06T09:46:43;7.80;1.00
2409;DHT22;8463;48.094;7.970;2024-03-06T09:49:17;7.80;1.00
2409;DHT22;8463;48.094;7.970;2024-03-06T09:51:47;7.80;1.00
2409;DHT22;8463;48.094;7.970;2024-03-06T09:54:17;7.90;1.00
2409;DHT22;8463;48.094;7.970;2024-03-06T09:56:43;8.00;1.00
2409;DHT22;8463;48.094;7.970;2024-03-06T09:59:10;8.10;1.00
2409;DHT22;8463;48.094;7.970;2024-03-06T10:01:49;8.20;1.00
2409;DHT22;8463;48.094;7.970;2024-03-06T10:04:26;8.30;1.00
2409;DHT22;8463;48.094;7.970;2024-03-06T10:06:59;8.40;1.00
2409;DHT22;8463;48.094;7.970;2024-03-06T10:09:26;8.50;1.00
2409;DHT22;8463;48.094;7.970;2024-03-06T10:11:53;8.40;1.00
2409;DHT22;8463;48.094;7.970;2024-03-06T10:14:19;8.60;1.00
2409;DHT22;8463;48.094;7.970;2024-03-06T10:19:25;8.70;1.00
2409;DHT22;8463;48.094;7.970;2024-03-06T10:21:53;8.70;1.00
2409;DHT22;8463;48.094;7.970;2024-03-06T10:24:23;8.90;1.00
2409;DHT22;8463;48.094;7.970;2024-03-06T10:26:56;8.90;1.00
2409;DHT22;8463;48.094;7.970;2024-03-06T10:29:24;8.90;1.00
2409;DHT22;8463;48.094;7.970;2024-03-06T10:31:56;8.90;1.00
2409;DHT22;8463;48.094;7.970;2024-03-06T10:34:26;8.90;1.00
2409;DHT22;8463;48.094;7.970;2024-03-06T10:36:56;8.90;1.00
2409;DHT22;8463;48.094;7.970;2024-03-06T10:39:24;8.90;1.00
2409;DHT22;8463;48.094;7.970;2024-03-06T10:41:55;9.00;1.00
2409;DHT22;8463;48.094;7.970;2024-03-06T10:44:23;9.10;1.00
2409;DHT22;8463;48.094;7.970;2024-03-06T10:47:06;9.20;1.00
2409;DHT22;8463;48.094;7.970;2024-03-06T10:49:35;9.30;1.00
2409;DHT22;8463;48.094;7.970;2024-03-06T10:52:03;9.30;1.00
2409;DHT22;8463;48.094;7.970;2024-03-06T10:54:33;9.30;1.00
2409;DHT22;8463;48.094;7.970;2024-03-06T10:57:01;9.50;1.00
2409;DHT22;8463;48.094;7.970;2024-03-06T10:59:28;9.70;1.00
2409;DHT22;8463;48.094;7.970;2024-03-06T11:01:58;9.60;1.00
2409;DHT22;8463;48.094;7.970;2024-03-06T11:04:28;9.70;1.00
2409;DHT22;8463;48.094;7.970;2024-03-06T11:06:56;9.60;1.00
2409;DHT22;8463;48.094;7.970;2024-03-06T11:09:22;9.60;1.00
2409;DHT22;8463;48.094;7.970;2024-03-06T11:11:51;9.70;1.00
2409;DHT22;8463;48.094;7.970;2024-03-06T11:14:17;9.50;1.00
2409;DHT22;8463;48.094;7.970;2024-03-06T11:17:09;9.30;1.00
2409;DHT22;8463;48.094;7.970;2024-03-06T11:28:11;9.40;1.00
2409;DHT22;8463;48.094;7.970;2024-03-06T11:30:48;9.50;1.00
2409;DHT22;8463;48.094;7.970;2024-03-06T11:33:20;9.60;1.00
2409;DHT22;8463;48.094;7.970;2024-03-06T11:38:58;9.80;1.00
2409;DHT22;8463;48.094;7.970;2024-03-06T11:41:26;9.90;1.00
2409;DHT22;8463;48.094;7.970;2024-03-06T11:43:54;9.90;1.00
2409;DHT22;8463;48.094;7.970;2024-03-06T11:46:22;10.00;1.00
2409;DHT22;8463;48.094;7.970;2024-03-06T11:48:57;10.00;1.00
2409;DHT22;8463;48.094;7.970;2024-03-06T11:51:23;10.10;1.00
2409;DHT22;8463;48.094;7.970;2024-03-06T11:53:50;10.20;1.00
2409;DHT22;8463;48.094;7.970;2024-03-06T11:56:20;10.50;1.00
2409;DHT22;8463;48.094;7.970;2024-03-06T11:58:46;10.50;1.00
2409;DHT22;8463;48.094;7.970;2024-03-06T12:01:13;10.60;1.00
2409;DHT22;8463;48.094;7.970;2024-03-06T12:03:39;10.70;1.00
2409;DHT22;8463;48.094;7.970;2024-03-06T12:06:06;10.80;1.00
2409;DHT22;8463;48.094;7.970;2024-03-06T12:08:33;11.00;1.00
2409;DHT22;8463;48.094;7.970;2024-03-06T12:11:03;11.00;1.00
2409;DHT22;8463;48.094;7.970;2024-03-06T12:13:29;11.20;1.00
2409;DHT22;8463;48.094;7.970;2024-03-06T12:15:55;11.20;1.00
2409;DHT22;8463;48.094;7.970;2024-03-06T12:18:21;11.20;1.00
2409;DHT22;8463;48.094;7.970;2024-03-06T12:20:50;11.10;1.00
2409;DHT22;8463;48.094;7.970;2024-03-06T12:23:22;10.80;1.00
2409;DHT22;8463;48.094;7.970;2024-03-06T12:26:04;10.90;1.00
2409;DHT22;8463;48.094;7.970;2024-03-06T12:28:30;10.70;1.00
2409;DHT22;8463;48.094;7.970;2024-03-06T12:30:56;10.70;1.00
2409;DHT22;8463;48.094;7.970;2024-03-06T12:33:26;10.50;1.00
2409;DHT22;8463;48.094;7.970;2024-03-06T12:36:04;10.40;1.00
2409;DHT22;8463;48.094;7.970;2024-03-06T12:38:36;10.40;1.00
2409;DHT22;8463;48.094;7.970;2024-03-06T12:41:02;10.40;1.00
2409;DHT22;8463;48.094;7.970;2024-03-06T12:43:28;10.40;1.00
2409;DHT22;8463;48.094;7.970;2024-03-06T12:45:54;10.40;1.00
2409;DHT22;8463;48.094;7.970;2024-03-06T12:48:22;10.50;1.00
2409;DHT22;8463;48.094;7.970;2024-03-06T12:50:48;10.50;1.00
2409;DHT22;8463;48.094;7.970;2024-03-06T12:53:21;10.60;1.00
2409;DHT22;8463;48.094;7.970;2024-03-06T12:55:47;10.60;1.00
2409;DHT22;8463;48.094;7.970;2024-03-06T12:58:13;10.60;1.00
2409;DHT22;8463;48.094;7.970;2024-03-06T13:00:40;10.80;1.00
2409;DHT22;8463;48.094;7.970;2024-03-06T13:03:06;10.80;1.00
2409;DHT22;8463;48.094;7.970;2024-03-06T13:05:32;10.80;1.00
2409;DHT22;8463;48.094;7.970;2024-03-06T13:07:58;10.80;1.00
2409;DHT22;8463;48.094;7.970;2024-03-06T13:12:51;10.70;1.00
2409;DHT22;8463;48.094;7.970;2024-03-06T13:15:17;10.90;1.00
2409;DHT22;8463;48.094;7.970;2024-03-06T13:17:43;10.90;1.00
2409;DHT22;8463;48.094;7.970;2024-03-06T13:20:09;10.80;1.00
2409;DHT22;8463;48.094;7.970;2024-03-06T13:22:37;10.80;1.00
2409;DHT22;8463;48.094;7.970;2024-03-06T13:25:03;10.80;1.00
2409;DHT22;8463;48.094;7.970;2024-03-06T13:27:29;10.80;1.00
2409;DHT22;8463;48.094;7.970;2024-03-06T13:29:54;10.70;1.00
2409;DHT22;8463;48.094;7.970;2024-03-06T13:32:20;10.60;1.00
2409;DHT22;8463;48.094;7.970;2024-03-06T13:34:46;10.60;1.00
2409;DHT22;8463;48.094;7.970;2024-03-06T13:37:12;10.50;1.00
2409;DHT22;8463;48.094;7.970;2024-03-06T13:39:37;10.50;1.00
2409;DHT22;8463;48.094;7.970;2024-03-06T13:42:04;10.70;1.00
2409;DHT22;8463;48.094;7.970;2024-03-06T13:44:31;10.90;1.00
2409;DHT22;8463;48.094;7.970;2024-03-06T13:46:57;11.00;1.00
2409;DHT22;8463;48.094;7.970;2024-03-06T13:49:38;11.00;1.00
2409;DHT22;8463;48.094;7.970;2024-03-06T13:52:04;11.00;1.00
2409;DHT22;8463;48.094;7.970;2024-03-06T13:54:31;11.00;1.00
2409;DHT22;8463;48.094;7.970;2024-03-06T13:56:57;10.90;1.00
2409;DHT22;8463;48.094;7.970;2024-03-06T13:59:35;10.80;1.00
2409;DHT22;8463;48.094;7.970;2024-03-06T14:02:06;10.80;1.00
2409;DHT22;8463;48.094;7.970;2024-03-06T14:04:34;10.40;1.00
2409;DHT22;8463;48.094;7.970;2024-03-06T14:07:00;10.50;1.00
2409;DHT22;8463;48.094;7.970;2024-03-06T14:09:26;10.40;1.00
2409;DHT22;8463;48.094;7.970;2024-03-06T14:11:53;10.30;1.00
2409;DHT22;8463;48.094;7.970;2024-03-06T14:14:19;10.30;1.00
2409;DHT22;8463;48.094;7.970;2024-03-06T14:16:45;10.30;1.00
2409;DHT22;8463;48.094;7.970;2024-03-06T14:19:11;10.10;1.00
2409;DHT22;8463;48.094;7.970;2024-03-06T14:21:37;10.00;1.00
2409;DHT22;8463;48.094;7.970;2024-03-06T14:24:04;9.80;1.00
2409;DHT22;8463;48.094;7.970;2024-03-06T14:26:32;9.80;1.00
2409;DHT22;8463;48.094;7.970;2024-03-06T14:28:58;9.70;1.00
2409;DHT22;8463;48.094;7.970;2024-03-06T14:31:24;9.70;1.00
2409;DHT22;8463;48.094;7.970;2024-03-06T14:33:50;9.60;1.00
2409;DHT22;8463;48.094;7.970;2024-03-06T14:36:16;9.40;1.00
2409;DHT22;8463;48.094;7.970;2024-03-06T14:38:42;9.40;1.00
2409;DHT22;8463;48.094;7.970;2024-03-06T14:41:10;9.40;1.00
2409;DHT22;8463;48.094;7.970;2024-03-06T14:43:35;9.30;1.00
2409;DHT22;8463;48.094;7.970;2024-03-06T14:46:07;9.30;1.00
2409;DHT22;8463;48.094;7.970;2024-03-06T14:48:34;9.10;1.00
2409;DHT22;8463;48.094;7.970;2024-03-06T14:51:00;9.10;1.00
2409;DHT22;8463;48.094;7.970;2024-03-06T14:53:26;8.90;1.00
2409;DHT22;8463;48.094;7.970;2024-03-06T14:55:52;8.90;1.00
2409;DHT22;8463;48.094;7.970;2024-03-06T14:58:18;8.90;1.00
2409;DHT22;8463;48.094;7.970;2024-03-06T15:00:44;8.90;1.00
2409;DHT22;8463;48.094;7.970;2024-03-06T15:03:10;8.90;1.00
2409;DHT22;8463;48.094;7.970;2024-03-06T15:05:36;8.80;1.00
2409;DHT22;8463;48.094;7.970;2024-03-06T15:08:02;8.60;1.00
2409;DHT22;8463;48.094;7.970;2024-03-06T15:10:29;8.60;1.00
2409;DHT22;8463;48.094;7.970;2024-03-06T15:12:58;8.60;1.00
2409;DHT22;8463;48.094;7.970;2024-03-06T15:15:24;8.60;1.00
2409;DHT22;8463;48.094;7.970;2024-03-06T15:17:49;8.60;1.00
2409;DHT22;8463;48.094;7.970;2024-03-06T15:20:15;8.70;1.00
2409;DHT22;8463;48.094;7.970;2024-03-06T15:22:43;8.60;1.00
2409;DHT22;8463;48.094;7.970;2024-03-06T15:25:13;8.50;1.00
2409;DHT22;8463;48.094;7.970;2024-03-06T15:27:39;8.40;1.00
2409;DHT22;8463;48.094;7.970;2024-03-06T15:30:07;8.40;1.00
2409;DHT22;8463;48.094;7.970;2024-03-06T15:32:37;8.40;1.00
2409;DHT22;8463;48.094;7.970;2024-03-06T15:35:03;8.30;1.00
2409;DHT22;8463;48.094;7.970;2024-03-06T15:37:30;8.30;1.00
2409;DHT22;8463;48.094;7.970;2024-03-06T15:39:56;8.00;1.00
2409;DHT22;8463;48.094;7.970;2024-03-06T15:42:23;8.00;1.00
2409;DHT22;8463;48.094;7.970;2024-03-06T15:44:52;7.90;1.00
2409;DHT22;8463;48.094;7.970;2024-03-06T15:47:18;7.80;1.00
2409;DHT22;8463;48.094;7.970;2024-03-06T15:49:45;7.80;1.00
2409;DHT22;8463;48.094;7.970;2024-03-06T15:52:11;7.80;1.00
2409;DHT22;8463;48.094;7.970;2024-03-06T15:54:38;7.90;1.00
2409;DHT22;8463;48.094;7.970;2024-03-06T15:57:04;7.90;1.00
2409;DHT22;8463;48.094;7.970;2024-03-06T15:59:32;7.90;1.00
2409;DHT22;8463;48.094;7.970;2024-03-06T16:01:58;7.90;1.00
2409;DHT22;8463;48.094;7.970;2024-03-06T16:04:24;7.90;1.00
2409;DHT22;8463;48.094;7.970;2024-03-06T16:06:49;7.90;1.00
2409;DHT22;8463;48.094;7.970;2024-03-06T16:09:15;7.90;1.00
2409;DHT22;8463;48.094;7.970;2024-03-06T16:11:41;7.90;1.00
2409;DHT22;8463;48.094;7.970;2024-03-06T16:14:07;7.90;1.00
2409;DHT22;8463;48.094;7.970;2024-03-06T16:16:32;7.90;1.00
2409;DHT22;8463;48.094;7.970;2024-03-06T16:18:58;7.80;1.00
2409;DHT22;8463;48.094;7.970;2024-03-06T16:21:24;7.70;1.00
2409;DHT22;8463;48.094;7.970;2024-03-06T16:23:50;7.60;1.00
2409;DHT22;8463;48.094;7.970;2024-03-06T16:26:16;7.50;1.00
2409;DHT22;8463;48.094;7.970;2024-03-06T16:28:45;7.40;1.00
2409;DHT22;8463;48.094;7.970;2024-03-06T16:31:11;7.40;1.00
2409;DHT22;8463;48.094;7.970;2024-03-06T16:33:37;7.30;1.00
2409;DHT22;8463;48.094;7.970;2024-03-06T16:36:02;7.40;1.00
2409;DHT22;8463;48.094;7.970;2024-03-06T16:38:28;7.40;1.00
2409;DHT22;8463;48.094;7.970;2024-03-06T16:43:21;7.30;1.00
2409;DHT22;8463;48.094;7.970;2024-03-06T16:45:47;7.20;1.00
2409;DHT22;8463;48.094;7.970;2024-03-06T16:48:12;7.30;1.00
2409;DHT22;8463;48.094;7.970;2024-03-06T16:50:38;7.30;1.00
2409;DHT22;8463;48.094;7.970;2024-03-06T16:53:04;7.30;1.00
2409;DHT22;8463;48.094;7.970;2024-03-06T16:55:32;7.30;1.00
2409;DHT22;8463;48.094;7.970;2024-03-06T16:57:58;7.30;1.00